Time;durP1;ratioP1;P1;durP2;ratioP2;P2;SDS_P1;SDS_P2;PMS_P1;PMS_P2;Temp;Humidity;BMP_temperature;BMP_pressure;BME280_temperature;BME280_humidity;BME280_pressure;Samples;Min_cycle;Max_cycle;Signal;HPM_P1;HPM_P2
2023/05/23 00:01:48;;;;;;;6.87;5.03;;;17.40;99.90;;;;;;5131774;27;20552;-44
2023/05/23 00:04:17;;;;;;;7.40;6.30;;;17.30;99.90;;;;;;5131633;27;20819;-45
2023/05/23 00:06:46;;;;;;;7.40;6.40;;;17.40;99.90;;;;;;5132221;27;20447;-44
2023/05/23 00:09:13;;;;;;;6.53;5.10;;;17.30;99.90;;;;;;5135630;27;20831;-44
2023/05/23 00:11:43;;;;;;;6.40;5.60;;;17.40;99.90;;;;;;5135875;27;20465;-44
2023/05/23 00:14:13;;;;;;;8.40;5.53;;;17.50;99.90;;;;;;5135705;27;20449;-45
2023/05/23 00:16:41;;;;;;;7.27;6.50;;;17.60;99.90;;;;;;5135476;27;20462;-45
2023/05/23 00:19:09;;;;;;;8.67;6.47;;;17.60;99.90;;;;;;5135817;27;20445;-45
2023/05/23 00:21:37;;;;;;;6.80;5.50;;;17.40;99.90;;;;;;5135528;27;20499;-44
2023/05/23 00:24:04;;;;;;;9.23;5.70;;;17.30;99.90;;;;;;5135404;27;20479;-44
2023/05/23 00:26:31;;;;;;;10.37;5.77;;;17.20;99.90;;;;;;5135457;27;20527;-44
2023/05/23 00:28:58;;;;;;;5.93;4.60;;;17.20;99.90;;;;;;5135250;27;20563;-44
2023/05/23 00:31:27;;;;;;;8.57;5.17;;;17.30;99.90;;;;;;5134776;27;20542;-45
2023/05/23 00:33:54;;;;;;;7.10;5.97;;;17.40;99.90;;;;;;5135301;27;20476;-44
2023/05/23 00:36:21;;;;;;;7.33;5.70;;;17.50;99.90;;;;;;5134967;27;20938;-45
2023/05/23 00:38:48;;;;;;;9.47;6.20;;;17.50;99.90;;;;;;5135343;27;20435;-44
2023/05/23 00:41:17;;;;;;;7.57;6.30;;;17.30;99.90;;;;;;5135003;27;20496;-44
2023/05/23 00:43:44;;;;;;;6.70;5.53;;;17.20;99.90;;;;;;5134773;27;20484;-44
2023/05/23 00:46:11;;;;;;;6.80;6.10;;;17.10;99.90;;;;;;5133007;27;20938;-44
2023/05/23 00:48:39;;;;;;;5.77;5.17;;;17.10;99.90;;;;;;5133380;27;20556;-44
2023/05/23 00:51:07;;;;;;;5.97;5.30;;;17.10;99.90;;;;;;5133667;27;20544;-44
2023/05/23 00:53:34;;;;;;;6.47;5.80;;;17.30;99.90;;;;;;5133552;27;20493;-44
2023/05/23 00:56:02;;;;;;;6.10;5.30;;;17.40;99.90;;;;;;5133148;27;20962;-44
2023/05/23 00:58:29;;;;;;;8.50;5.23;;;17.40;99.90;;;;;;5132984;27;20945;-44
2023/05/23 01:00:56;;;;;;;7.60;6.70;;;17.30;99.90;;;;;;5134654;27;20489;-44
2023/05/23 01:03:27;;;;;;;6.33;5.40;;;16.90;99.90;;;;;;5134627;27;20444;-44
2023/05/23 01:05:55;;;;;;;7.60;5.90;;;17.00;99.90;;;;;;5134590;27;20441;-45
2023/05/23 01:08:22;;;;;;;6.90;4.63;;;17.20;99.90;;;;;;5134954;27;20563;-45
2023/05/23 01:10:50;;;;;;;8.27;6.20;;;17.20;99.90;;;;;;5134509;27;20496;-44
2023/05/23 01:13:23;;;;;;;7.50;6.20;;;17.20;99.90;;;;;;5134310;27;20538;-44
2023/05/23 01:15:55;;;;;;;6.80;5.87;;;17.10;99.90;;;;;;5134466;27;20440;-44
2023/05/23 01:18:29;;;;;;;5.93;5.10;;;17.10;99.90;;;;;;5133999;27;20447;-44
2023/05/23 01:21:03;;;;;;;6.80;5.30;;;17.00;99.90;;;;;;5134519;27;20475;-44
2023/05/23 01:23:54;;;;;;;5.77;5.00;;;17.10;99.90;;;;;;5134599;27;20466;-44
2023/05/23 01:26:33;;;;;;;9.63;6.33;;;17.00;99.90;;;;;;5134202;27;20953;-44
2023/05/23 01:29:09;;;;;;;5.87;4.73;;;17.00;99.90;;;;;;5134353;27;20479;-44
2023/05/23 01:31:37;;;;;;;7.33;5.33;;;17.10;99.90;;;;;;5134340;27;20463;-45
2023/05/23 01:34:05;;;;;;;7.83;5.23;;;17.20;99.90;;;;;;5134437;27;20435;-44
2023/05/23 01:36:35;;;;;;;7.70;6.90;;;17.30;99.90;;;;;;5134030;27;20444;-44
2023/05/23 01:39:02;;;;;;;8.23;5.53;;;17.30;99.90;;;;;;5133939;27;20441;-45
2023/05/23 01:41:29;;;;;;;8.00;5.60;;;17.00;99.90;;;;;;5133577;27;20468;-44
2023/05/23 01:43:56;;;;;;;6.70;5.57;;;17.00;99.90;;;;;;5134297;27;20479;-44
2023/05/23 01:46:25;;;;;;;6.23;5.20;;;17.10;99.90;;;;;;5132992;27;20447;-45
2023/05/23 01:48:53;;;;;;;6.07;5.47;;;17.10;99.90;;;;;;5134563;27;20487;-44
2023/05/23 01:51:21;;;;;;;8.30;5.40;;;17.20;99.90;;;;;;5133769;27;20499;-44
2023/05/23 01:53:49;;;;;;;8.67;5.60;;;17.20;99.90;;;;;;5133943;27;20524;-45
2023/05/23 01:56:17;;;;;;;6.90;5.60;;;17.20;99.90;;;;;;5133663;27;20467;-44
2023/05/23 01:58:44;;;;;;;5.70;5.10;;;17.20;99.90;;;;;;5133120;27;20516;-44
2023/05/23 02:01:11;;;;;;;6.20;5.00;;;17.20;99.90;;;;;;5133270;27;21057;-44
2023/05/23 02:03:40;;;;;;;7.00;6.13;;;17.30;99.90;;;;;;5133451;27;20508;-45
2023/05/23 02:06:07;;;;;;;9.40;6.43;;;17.00;99.90;;;;;;5133432;27;20502;-44
2023/05/23 02:08:34;;;;;;;8.20;6.20;;;16.80;99.90;;;;;;5133349;27;21048;-44
2023/05/23 02:11:01;;;;;;;9.87;6.20;;;16.60;99.90;;;;;;5133432;27;20542;-44
2023/05/23 02:13:28;;;;;;;11.43;6.10;;;16.50;99.90;;;;;;5133172;27;20445;-44
2023/05/23 02:15:55;;;;;;;6.90;6.00;;;16.60;99.90;;;;;;5133576;27;20482;-44
2023/05/23 02:18:24;;;;;;;7.80;6.13;;;16.50;99.90;;;;;;5133008;27;20518;-45
2023/05/23 02:20:53;;;;;;;7.57;5.50;;;16.40;99.90;;;;;;5133116;27;20467;-44
2023/05/23 02:23:20;;;;;;;7.37;5.33;;;16.30;99.90;;;;;;5133250;27;20529;-44
2023/05/23 02:25:46;;;;;;;6.60;5.33;;;16.40;99.90;;;;;;5132967;27;20472;-44
2023/05/23 02:28:13;;;;;;;7.17;5.80;;;16.40;99.90;;;;;;5133046;27;20474;-44
2023/05/23 02:30:40;;;;;;;7.73;5.77;;;16.40;99.90;;;;;;5131839;27;20534;-45
2023/05/23 02:33:08;;;;;;;7.27;6.27;;;16.60;99.90;;;;;;5133264;27;20440;-45
2023/05/23 02:35:35;;;;;;;7.90;6.70;;;16.70;99.90;;;;;;5133028;27;20486;-44
2023/05/23 02:38:03;;;;;;;10.03;7.03;;;16.80;99.90;;;;;;5133176;27;20447;-45
2023/05/23 02:40:30;;;;;;;8.30;6.97;;;16.80;99.90;;;;;;5132821;27;20546;-44
2023/05/23 02:42:57;;;;;;;6.67;5.80;;;16.70;99.90;;;;;;5132802;27;20470;-44
2023/05/23 02:45:24;;;;;;;9.40;7.00;;;16.70;99.90;;;;;;5132223;27;20481;-44
2023/05/23 02:47:51;;;;;;;15.23;7.43;;;16.50;99.90;;;;;;5132773;27;20585;-44
2023/05/23 02:50:18;;;;;;;10.77;7.03;;;16.20;99.90;;;;;;5132718;27;20569;-45
2023/05/23 02:52:45;;;;;;;13.00;7.57;;;16.30;99.90;;;;;;5132337;27;20445;-44
2023/05/23 02:55:13;;;;;;;11.00;7.63;;;16.40;99.90;;;;;;5132726;27;20472;-44
2023/05/23 02:57:40;;;;;;;9.20;7.13;;;16.30;99.90;;;;;;5131882;27;20546;-44
2023/05/23 03:00:10;;;;;;;8.93;6.60;;;16.40;99.90;;;;;;5132654;27;20534;-44
2023/05/23 03:02:37;;;;;;;10.33;7.20;;;16.10;99.90;;;;;;5132696;27;20445;-44
2023/05/23 03:05:05;;;;;;;8.10;6.77;;;16.10;99.90;;;;;;5132402;27;20467;-44
2023/05/23 03:07:32;;;;;;;9.87;6.50;;;16.30;99.90;;;;;;5132435;27;20516;-44
2023/05/23 03:09:59;;;;;;;13.17;7.67;;;16.10;99.90;;;;;;5132233;27;20505;-44
2023/05/23 03:12:28;;;;;;;10.57;6.80;;;15.60;99.90;;;;;;5132394;27;20529;-44
2023/05/23 03:14:55;;;;;;;9.63;7.03;;;15.60;99.90;;;;;;5132211;27;20975;-44
2023/05/23 03:17:21;;;;;;;9.70;6.93;;;15.40;99.90;;;;;;5131886;27;20445;-44
2023/05/23 03:19:48;;;;;;;10.07;7.87;;;15.50;99.90;;;;;;5132216;27;20480;-44
2023/05/23 03:22:15;;;;;;;8.53;6.90;;;15.60;99.90;;;;;;5132174;27;20472;-45
2023/05/23 03:24:42;;;;;;;10.07;6.83;;;15.70;99.90;;;;;;5132094;27;20477;-44
2023/05/23 03:27:09;;;;;;;11.87;7.27;;;15.80;99.90;;;;;;5132329;27;20445;-44
2023/05/23 03:29:37;;;;;;;8.93;6.13;;;16.00;99.90;;;;;;5132461;27;20564;-44
2023/05/23 03:32:05;;;;;;;7.00;5.00;;;16.20;99.90;;;;;;5132168;27;20509;-45
2023/05/23 03:34:33;;;;;;;9.63;6.10;;;16.30;99.90;;;;;;5132183;27;20872;-44
2023/05/23 03:37:00;;;;;;;6.37;5.70;;;16.30;99.90;;;;;;5131806;27;20477;-44
2023/05/23 03:39:27;;;;;;;13.43;6.10;;;15.70;99.90;;;;;;5132149;27;20441;-45
2023/05/23 03:41:54;;;;;;;6.43;5.63;;;15.90;99.90;;;;;;5132467;27;20498;-44
2023/05/23 03:44:20;;;;;;;7.40;5.90;;;16.00;99.90;;;;;;5135924;27;20503;-43
2023/05/23 03:46:49;;;;;;;7.57;6.20;;;16.00;99.90;;;;;;5136100;27;20523;-45
2023/05/23 03:49:16;;;;;;;6.37;4.70;;;16.10;99.90;;;;;;5136106;27;20558;-45
2023/05/23 03:51:42;;;;;;;7.30;5.20;;;16.10;99.90;;;;;;5135956;27;20539;-44
2023/05/23 03:54:09;;;;;;;8.20;5.47;;;16.10;99.90;;;;;;5136268;27;20969;-44
2023/05/23 03:56:36;;;;;;;8.80;5.37;;;15.80;99.90;;;;;;5135898;27;20867;-44
2023/05/23 03:59:03;;;;;;;8.57;5.90;;;15.50;99.90;;;;;;5135802;27;20530;-44
2023/05/23 04:01:30;;;;;;;8.40;5.23;;;15.70;99.90;;;;;;5135192;27;20545;-44
2023/05/23 04:03:59;;;;;;;7.20;5.17;;;15.70;99.90;;;;;;5135977;27;20540;-44
2023/05/23 04:06:28;;;;;;;5.60;4.87;;;15.70;99.90;;;;;;5135607;27;20510;-45
2023/05/23 04:08:55;;;;;;;6.53;5.30;;;15.80;99.90;;;;;;5135748;27;20476;-45
2023/05/23 04:11:22;;;;;;;7.77;5.30;;;15.90;99.90;;;;;;5135802;27;20461;-45
2023/05/23 04:13:50;;;;;;;9.03;6.10;;;15.90;99.90;;;;;;5135796;27;20530;-45
2023/05/23 04:16:17;;;;;;;8.00;5.63;;;15.90;99.90;;;;;;5135611;27;20501;-45
2023/05/23 04:18:46;;;;;;;7.27;6.20;;;16.00;99.90;;;;;;5135657;27;20468;-45
2023/05/23 04:21:14;;;;;;;5.80;4.53;;;16.10;99.90;;;;;;5135067;27;20828;-44
2023/05/23 04:23:41;;;;;;;6.50;5.40;;;16.00;99.90;;;;;;5134508;27;20530;-45
2023/05/23 04:26:08;;;;;;;7.27;5.00;;;16.10;99.90;;;;;;5133791;27;21022;-44
2023/05/23 04:28:36;;;;;;;6.23;4.80;;;16.10;99.90;;;;;;5134133;27;20448;-44
2023/05/23 04:31:03;;;;;;;7.83;6.03;;;15.80;99.90;;;;;;5134026;27;20481;-43
2023/05/23 04:33:30;;;;;;;6.80;5.80;;;15.60;99.90;;;;;;5133725;27;20470;-44
2023/05/23 04:35:57;;;;;;;7.80;5.07;;;15.40;99.90;;;;;;5133459;27;20441;-44
2023/05/23 04:38:26;;;;;;;7.17;5.47;;;15.30;99.90;;;;;;5134157;27;20477;-44
2023/05/23 04:40:53;;;;;;;6.20;4.77;;;15.30;99.90;;;;;;5135352;27;20457;-45
2023/05/23 04:43:20;;;;;;;7.90;5.90;;;15.40;99.90;;;;;;5135049;27;20531;-45
2023/05/23 04:45:48;;;;;;;7.47;6.03;;;15.60;99.90;;;;;;5134247;27;20449;-45
2023/05/23 04:48:16;;;;;;;6.47;4.93;;;15.70;99.90;;;;;;5134904;27;20482;-44
2023/05/23 04:50:46;;;;;;;5.43;4.73;;;15.80;99.90;;;;;;5131907;27;20529;-45
2023/05/23 04:53:13;;;;;;;7.40;6.07;;;15.90;99.90;;;;;;5113718;27;20894;-44
2023/05/23 04:55:41;;;;;;;7.47;5.90;;;16.10;99.90;;;;;;5113736;28;20531;-45
2023/05/23 04:58:08;;;;;;;8.60;5.47;;;16.30;99.90;;;;;;5113845;28;20525;-45
2023/05/23 05:00:35;;;;;;;7.50;5.97;;;16.20;99.90;;;;;;5116370;27;20469;-44
2023/05/23 05:03:02;;;;;;;7.10;5.67;;;15.90;99.90;;;;;;5116543;27;20449;-45
2023/05/23 05:05:29;;;;;;;7.73;6.10;;;15.70;99.90;;;;;;5114174;28;21003;-44
2023/05/23 05:07:56;;;;;;;6.90;6.10;;;15.60;99.90;;;;;;5113969;28;20520;-45
2023/05/23 05:10:23;;;;;;;9.80;6.03;;;15.30;99.90;;;;;;5113396;28;20517;-45
2023/05/23 05:12:51;;;;;;;8.00;6.53;;;15.20;99.90;;;;;;5113775;28;20457;-44
2023/05/23 05:15:19;;;;;;;9.07;6.40;;;15.30;99.90;;;;;;5113683;28;20474;-45
2023/05/23 05:17:46;;;;;;;8.20;6.80;;;15.50;99.90;;;;;;5113966;28;20530;-45
2023/05/23 05:20:14;;;;;;;7.13;6.10;;;15.70;99.90;;;;;;5113996;28;20486;-45
2023/05/23 05:22:41;;;;;;;8.03;6.47;;;15.90;99.90;;;;;;5113780;28;20851;-44
2023/05/23 05:25:10;;;;;;;8.10;6.23;;;15.90;99.90;;;;;;5113847;28;20533;-44
2023/05/23 05:27:37;;;;;;;7.67;6.10;;;15.90;99.90;;;;;;5103524;22;20513;-75
2023/05/23 05:30:08;;;;;;;7.27;6.30;;;15.90;99.90;;;;;;5073551;28;20527;-75
2023/05/23 05:32:35;;;;;;;8.43;7.10;;;16.00;99.90;;;;;;5073291;28;20934;-75
2023/05/23 05:35:02;;;;;;;8.93;6.00;;;16.10;99.90;;;;;;5073592;28;20536;-78
2023/05/23 05:37:29;;;;;;;8.60;7.60;;;16.00;99.90;;;;;;5073575;28;20503;-79
2023/05/23 05:40:05;;;;;;;8.57;6.83;;;16.10;99.90;;;;;;5073983;28;20457;-78
2023/05/23 05:42:32;;;;;;;7.60;6.40;;;16.20;99.90;;;;;;5073471;28;20460;-79
2023/05/23 05:44:58;;;;;;;7.90;6.67;;;16.00;99.90;;;;;;5073083;28;21031;-79
2023/05/23 05:47:27;;;;;;;7.60;6.33;;;16.00;99.90;;;;;;5072961;28;20534;-79
2023/05/23 05:49:54;;;;;;;9.33;6.43;;;16.10;99.90;;;;;;5075255;28;20581;-79
2023/05/23 05:52:21;;;;;;;7.87;6.20;;;16.10;99.90;;;;;;5073773;28;20471;-79
2023/05/23 05:54:48;;;;;;;7.53;6.73;;;15.90;99.90;;;;;;5073284;28;20464;-79
2023/05/23 05:57:15;;;;;;;9.07;6.57;;;15.80;99.90;;;;;;5072707;28;20482;-77
2023/05/23 05:59:42;;;;;;;8.00;7.17;;;15.90;99.90;;;;;;5071853;28;20466;-77
2023/05/23 06:02:08;;;;;;;9.80;6.93;;;15.80;99.90;;;;;;5073254;28;20865;-77
2023/05/23 06:04:37;;;;;;;9.40;6.93;;;15.70;99.90;;;;;;5072128;28;20491;-77
2023/05/23 06:07:04;;;;;;;8.50;7.20;;;15.60;99.90;;;;;;5072359;28;20493;-77
2023/05/23 06:09:31;;;;;;;8.90;7.07;;;15.40;99.90;;;;;;5072948;28;20504;-77
2023/05/23 06:11:58;;;;;;;9.50;7.53;;;15.50;99.90;;;;;;5073827;28;20547;-77
2023/05/23 06:14:25;;;;;;;10.13;7.47;;;15.50;99.90;;;;;;5072669;28;20528;-77
2023/05/23 06:16:51;;;;;;;11.93;7.53;;;15.60;99.90;;;;;;5070118;28;20896;-77
2023/05/23 06:19:18;;;;;;;10.50;8.77;;;15.80;99.90;;;;;;5066722;28;20563;-77
2023/05/23 06:21:47;;;;;;;10.00;7.70;;;15.90;99.90;;;;;;5071168;28;20494;-77
2023/05/23 06:24:14;;;;;;;11.33;8.37;;;16.00;99.90;;;;;;5071417;28;20476;-77
2023/05/23 06:26:40;;;;;;;10.17;7.47;;;16.20;99.90;;;;;;5070741;28;21022;-77
2023/05/23 06:29:08;;;;;;;13.83;8.23;;;16.30;99.90;;;;;;5071370;28;20471;-77
2023/05/23 06:31:35;;;;;;;10.33;8.50;;;16.30;99.90;;;;;;5070057;28;20508;-77
2023/05/23 06:34:02;;;;;;;11.27;8.30;;;16.10;99.90;;;;;;5062369;28;20937;-77
2023/05/23 06:36:30;;;;;;;10.20;8.03;;;16.00;99.90;;;;;;5071419;28;20862;-77
2023/05/23 06:38:58;;;;;;;11.17;8.50;;;16.00;99.90;;;;;;5071568;28;20463;-77
2023/05/23 06:41:26;;;;;;;10.43;8.67;;;16.00;99.90;;;;;;5072119;28;20433;-77
2023/05/23 06:43:53;;;;;;;10.67;8.30;;;16.10;99.90;;;;;;5071505;28;20938;-77
2023/05/23 06:46:20;;;;;;;11.57;8.90;;;16.10;99.90;;;;;;5069457;28;20479;-77
2023/05/23 06:48:47;;;;;;;9.00;7.80;;;16.10;99.90;;;;;;5071683;28;20544;-77
2023/05/23 06:51:14;;;;;;;10.07;8.20;;;16.10;99.90;;;;;;5071582;28;20556;-77
2023/05/23 06:53:40;;;;;;;16.00;12.60;;;16.10;99.90;;;;;;5071916;28;20521;-77
2023/05/23 06:56:09;;;;;;;12.40;10.00;;;16.10;99.90;;;;;;5071151;28;20534;-79
2023/05/23 06:58:36;;;;;;;12.10;10.07;;;16.00;99.90;;;;;;5071386;28;20454;-79
2023/05/23 07:01:03;;;;;;;15.47;12.40;;;16.00;99.90;;;;;;5070799;28;20553;-77
2023/05/23 07:03:30;;;;;;;16.93;10.60;;;16.20;99.90;;;;;;5065314;28;20445;-77
2023/05/23 07:05:57;;;;;;;11.87;8.03;;;16.30;99.90;;;;;;5071352;28;20440;-77
2023/05/23 07:08:23;;;;;;;14.23;7.80;;;16.00;99.90;;;;;;5071605;28;20481;-77
2023/05/23 07:10:50;;;;;;;9.87;7.33;;;16.00;99.90;;;;;;5070907;28;20993;-77
2023/05/23 07:13:19;;;;;;;9.30;8.07;;;15.80;99.90;;;;;;5071162;28;20520;-77
2023/05/23 07:15:46;;;;;;;12.67;8.03;;;15.70;99.90;;;;;;5071303;28;20441;-77
2023/05/23 07:18:12;;;;;;;7.93;7.07;;;15.70;99.90;;;;;;5071227;28;20443;-77
2023/05/23 07:20:39;;;;;;;9.20;7.90;;;15.60;99.90;;;;;;5080708;28;20482;-76
2023/05/23 07:23:06;;;;;;;11.03;8.20;;;15.60;99.90;;;;;;5087824;28;20504;-77
2023/05/23 07:25:33;;;;;;;9.67;8.07;;;15.60;99.90;;;;;;5071306;28;20471;-77
2023/05/23 07:28:00;;;;;;;8.60;7.37;;;15.50;99.90;;;;;;5070799;28;20445;-77
2023/05/23 07:30:29;;;;;;;13.63;9.00;;;15.50;99.90;;;;;;5071409;28;20519;-77
2023/05/23 07:32:56;;;;;;;8.70;7.80;;;15.40;99.90;;;;;;5070983;28;20532;-77
2023/05/23 07:35:25;;;;;;;10.13;8.20;;;15.40;99.90;;;;;;5064142;28;20460;-77
2023/05/23 07:37:52;;;;;;;10.83;8.60;;;15.30;99.90;;;;;;5071403;28;20449;-77
2023/05/23 07:40:19;;;;;;;10.07;7.87;;;15.30;99.90;;;;;;5071087;28;20494;-77
2023/05/23 07:42:46;;;;;;;10.40;7.93;;;15.30;99.90;;;;;;5071872;28;20462;-79
2023/05/23 07:45:13;;;;;;;12.27;8.30;;;15.40;99.90;;;;;;5071075;28;20534;-77
2023/05/23 07:47:42;;;;;;;11.57;8.23;;;15.40;99.90;;;;;;5071231;28;20458;-77
2023/05/23 07:50:09;;;;;;;12.90;8.63;;;15.40;99.90;;;;;;5071979;28;20554;-77
2023/05/23 07:52:36;;;;;;;9.20;7.63;;;15.40;99.90;;;;;;5071445;28;20498;-77
2023/05/23 07:55:03;;;;;;;8.40;6.53;;;15.30;99.90;;;;;;5071272;28;20530;-77
2023/05/23 07:57:30;;;;;;;9.20;7.47;;;15.40;99.90;;;;;;5070186;28;20546;-77
2023/05/23 07:59:57;;;;;;;8.20;7.23;;;15.50;99.90;;;;;;5076567;28;20850;-77
2023/05/23 08:02:24;;;;;;;8.87;7.20;;;15.70;99.90;;;;;;5072885;28;20948;-77
2023/05/23 08:04:53;;;;;;;9.90;7.90;;;15.90;99.90;;;;;;5071315;28;20448;-77
2023/05/23 08:07:20;;;;;;;14.17;8.83;;;16.00;99.90;;;;;;5071198;28;20792;-77
2023/05/23 08:09:47;;;;;;;8.80;7.47;;;16.20;99.90;;;;;;5071498;28;20510;-77
2023/05/23 08:12:14;;;;;;;9.87;8.20;;;16.20;99.90;;;;;;5070544;28;20510;-77
2023/05/23 08:14:41;;;;;;;10.60;8.60;;;16.20;99.90;;;;;;5071317;28;20529;-79
2023/05/23 08:17:08;;;;;;;7.63;6.80;;;16.00;99.90;;;;;;5070715;28;21035;-77
2023/05/23 08:19:35;;;;;;;10.30;8.17;;;15.90;99.90;;;;;;5070951;28;20567;-79
2023/05/23 08:22:03;;;;;;;10.67;8.37;;;15.80;99.90;;;;;;5070647;28;20716;-77
2023/05/23 08:24:30;;;;;;;9.10;8.10;;;16.00;99.90;;;;;;5070996;28;20953;-77
2023/05/23 08:26:57;;;;;;;9.33;8.17;;;16.10;99.90;;;;;;5070699;28;20922;-77
2023/05/23 08:29:24;;;;;;;10.50;9.00;;;16.30;99.90;;;;;;5073630;28;20546;-76
2023/05/23 08:31:51;;;;;;;13.13;9.97;;;16.30;99.90;;;;;;5074496;28;20875;-77
2023/05/23 08:34:18;;;;;;;11.00;9.33;;;16.40;99.90;;;;;;5074197;28;20939;-79
2023/05/23 08:36:45;;;;;;;13.50;10.43;;;16.40;99.90;;;;;;5074870;28;20466;-77
2023/05/23 08:39:14;;;;;;;11.60;9.37;;;16.40;99.90;;;;;;5074437;28;20993;-79
2023/05/23 08:41:40;;;;;;;13.87;10.30;;;16.30;99.90;;;;;;5074255;28;20538;-77
2023/05/23 08:44:07;;;;;;;10.87;9.00;;;16.60;99.90;;;;;;5074012;28;21030;-77
2023/05/23 08:46:39;;;;;;;12.83;10.37;;;16.70;99.90;;;;;;5073920;28;21098;-77
2023/05/23 08:49:07;;;;;;;11.20;8.90;;;16.70;99.90;;;;;;5074305;28;20471;-77
2023/05/23 08:51:37;;;;;;;10.70;9.60;;;16.70;99.90;;;;;;5073610;28;20548;-77
2023/05/23 08:54:08;;;;;;;9.83;8.47;;;16.60;99.90;;;;;;5074631;28;20478;-77
2023/05/23 08:56:37;;;;;;;9.13;8.10;;;16.60;99.90;;;;;;5073687;28;20513;-77
2023/05/23 08:59:05;;;;;;;10.17;9.07;;;16.30;99.90;;;;;;5073498;28;20459;-77
2023/05/23 09:01:32;;;;;;;11.87;8.97;;;16.30;99.90;;;;;;5073960;28;20495;-77
2023/05/23 09:04:03;;;;;;;11.50;8.20;;;16.20;99.90;;;;;;5073509;28;20481;-77
2023/05/23 09:06:31;;;;;;;11.37;9.27;;;16.20;99.90;;;;;;5073956;28;20472;-79
2023/05/23 09:08:58;;;;;;;9.13;7.90;;;16.30;99.90;;;;;;5074131;28;20452;-78
2023/05/23 09:11:25;;;;;;;12.53;9.10;;;16.30;99.90;;;;;;5073572;28;20555;-78
2023/05/23 09:13:54;;;;;;;12.00;9.10;;;16.20;99.90;;;;;;5073672;28;20450;-78
2023/05/23 09:16:22;;;;;;;10.47;8.60;;;16.20;99.90;;;;;;5073566;28;20444;-78
2023/05/23 09:18:49;;;;;;;10.83;8.37;;;16.20;99.90;;;;;;5073881;28;20453;-78
2023/05/23 09:21:15;;;;;;;10.83;9.20;;;16.30;99.90;;;;;;5073620;28;20474;-78
2023/05/23 09:23:42;;;;;;;11.87;8.97;;;16.30;99.90;;;;;;5073589;28;20471;-78
2023/05/23 09:26:12;;;;;;;10.53;8.50;;;16.20;99.90;;;;;;5073292;28;20493;-78
2023/05/23 09:28:40;;;;;;;10.97;9.50;;;16.20;99.90;;;;;;5074364;28;20451;-78
2023/05/23 09:31:09;;;;;;;11.93;9.47;;;16.30;99.90;;;;;;5073252;28;20486;-78
2023/05/23 09:33:40;;;;;;;11.17;9.20;;;16.40;99.90;;;;;;5073481;28;20945;-79
2023/05/23 09:36:07;;;;;;;12.17;9.90;;;16.50;99.90;;;;;;5067241;28;20493;-79
2023/05/23 09:38:39;;;;;;;12.70;10.63;;;16.50;99.90;;;;;;5074179;28;20494;-79
2023/05/23 09:41:06;;;;;;;10.80;9.70;;;16.60;99.90;;;;;;5073230;28;20982;-78
2023/05/23 09:43:33;;;;;;;10.93;9.73;;;16.60;99.90;;;;;;5074255;28;20448;-78
2023/05/23 09:46:01;;;;;;;10.37;9.27;;;16.60;99.90;;;;;;5074297;28;20991;-78
2023/05/23 09:48:31;;;;;;;11.20;9.10;;;16.70;99.90;;;;;;5074363;28;20521;-79
2023/05/23 09:50:58;;;;;;;11.23;9.90;;;16.80;99.90;;;;;;5074610;28;21029;-79
2023/05/23 09:53:25;;;;;;;13.00;10.50;;;16.90;99.90;;;;;;5074064;28;20887;-79
2023/05/23 09:55:52;;;;;;;13.80;10.20;;;17.00;99.90;;;;;;5073211;28;20471;-78
2023/05/23 09:58:23;;;;;;;10.63;9.50;;;16.90;99.90;;;;;;5073718;28;20446;-78
2023/05/23 10:00:53;;;;;;;11.10;10.00;;;16.90;99.90;;;;;;5073530;28;20467;-79
2023/05/23 10:03:24;;;;;;;11.40;9.27;;;17.00;99.90;;;;;;5073735;28;20549;-78
2023/05/23 10:06:00;;;;;;;12.33;10.33;;;17.00;99.90;;;;;;5076095;28;20498;-79
2023/05/23 10:08:34;;;;;;;16.10;12.57;;;17.00;99.90;;;;;;5072151;28;20450;-77
2023/05/23 10:11:49;;;;;;;13.67;10.27;;;17.10;99.90;;;;;;5073116;28;20597;-78
2023/05/23 10:14:18;;;;;;;11.40;9.30;;;17.10;99.90;;;;;;5074668;28;20976;-78
2023/05/23 10:16:55;;;;;;;10.73;9.23;;;17.20;99.90;;;;;;5058553;28;20437;-78
2023/05/23 10:19:25;;;;;;;13.23;11.73;;;17.20;99.90;;;;;;5060925;28;20990;-78
2023/05/23 10:21:59;;;;;;;15.00;11.80;;;17.30;99.90;;;;;;5076679;28;20463;-78
2023/05/23 10:24:26;;;;;;;11.00;9.70;;;17.40;99.90;;;;;;5076540;28;20454;-79
2023/05/23 10:26:54;;;;;;;11.17;8.90;;;17.40;99.90;;;;;;5069937;28;20466;-78
2023/05/23 10:29:22;;;;;;;8.97;7.20;;;17.40;99.90;;;;;;5073460;28;20897;-78
2023/05/23 10:31:50;;;;;;;9.63;7.80;;;17.40;99.90;;;;;;5069469;28;20481;-78
2023/05/23 10:34:25;;;;;;;10.20;7.90;;;17.50;99.90;;;;;;5071564;28;20506;-78
2023/05/23 10:37:00;;;;;;;7.90;6.93;;;17.50;99.90;;;;;;5071247;28;20455;-77
2023/05/23 10:39:47;;;;;;;10.20;8.20;;;17.70;99.90;;;;;;5064645;28;20612;-78
2023/05/23 10:42:19;;;;;;;12.07;7.07;;;17.70;99.90;;;;;;5063757;28;20541;-79
2023/05/23 10:44:46;;;;;;;8.33;6.70;;;17.80;99.90;;;;;;5068037;28;21033;-78
2023/05/23 10:47:24;;;;;;;8.37;7.23;;;17.80;99.90;;;;;;5069936;28;20498;-78
2023/05/23 10:49:53;;;;;;;11.37;8.67;;;17.80;99.90;;;;;;5075199;28;20497;-79
2023/05/23 10:52:25;;;;;;;10.33;8.80;;;17.90;99.90;;;;;;5063930;28;20520;-78
2023/05/23 10:54:54;;;;;;;10.37;7.80;;;18.00;99.90;;;;;;5063231;28;20457;-79
2023/05/23 10:57:22;;;;;;;13.20;7.77;;;18.00;99.90;;;;;;5069360;28;20470;-79
2023/05/23 10:59:51;;;;;;;7.73;6.90;;;18.10;99.90;;;;;;5072288;28;20518;-79
2023/05/23 11:02:25;;;;;;;8.70;7.43;;;18.10;99.90;;;;;;5068241;28;20452;-79
2023/05/23 11:05:19;;;;;;;8.23;7.40;;;18.20;99.90;;;;;;5064504;28;20955;-79
2023/05/23 11:08:06;;;;;;;9.53;7.27;;;18.30;99.90;;;;;;5063788;28;20894;-78
2023/05/23 11:10:33;;;;;;;7.80;6.83;;;18.30;99.90;;;;;;5066484;28;20566;-79
2023/05/23 11:13:07;;;;;;;6.97;5.77;;;18.20;99.90;;;;;;5069398;28;20539;-78
2023/05/23 11:15:43;;;;;;;7.93;6.43;;;18.30;99.90;;;;;;5070802;28;20519;-79
2023/05/23 11:18:19;;;;;;;8.10;5.67;;;18.40;99.90;;;;;;5084429;22;20497;-47
2023/05/23 11:20:47;;;;;;;6.90;5.47;;;18.40;99.90;;;;;;5069871;28;20512;-49
2023/05/23 11:23:15;;;;;;;9.00;7.40;;;18.40;99.90;;;;;;5070489;28;20445;-46
2023/05/23 11:25:43;;;;;;;7.83;7.00;;;18.50;99.90;;;;;;5070691;28;20521;-48
2023/05/23 11:28:11;;;;;;;7.80;5.57;;;18.50;99.90;;;;;;5070351;28;20530;-47
2023/05/23 11:30:39;;;;;;;6.73;5.73;;;18.50;99.90;;;;;;5069837;28;20452;-46
2023/05/23 11:33:12;;;;;;;5.93;5.10;;;18.50;99.90;;;;;;5084865;22;20587;-45
2023/05/23 11:35:40;;;;;;;7.13;5.10;;;18.60;99.90;;;;;;5089193;28;20481;-45
2023/05/23 11:38:07;;;;;;;6.20;4.70;;;18.60;99.90;;;;;;5086457;28;20539;-45
2023/05/23 11:40:37;;;;;;;5.20;4.70;;;18.70;99.90;;;;;;5090426;28;20525;-45
2023/05/23 11:43:06;;;;;;;7.90;4.80;;;18.80;99.90;;;;;;5090537;28;20493;-45
2023/05/23 11:45:34;;;;;;;6.77;5.10;;;18.90;99.90;;;;;;5086866;28;20471;-45
2023/05/23 11:48:06;;;;;;;7.20;4.53;;;18.90;99.90;;;;;;5090865;28;20941;-45
2023/05/23 11:50:33;;;;;;;5.60;4.30;;;19.00;99.90;;;;;;5090927;28;20450;-45
2023/05/23 11:53:00;;;;;;;5.70;4.80;;;19.10;99.90;;;;;;5086255;28;20569;-45
2023/05/23 11:55:27;;;;;;;5.97;4.27;;;19.20;99.90;;;;;;5090891;28;20525;-45
2023/05/23 11:57:56;;;;;;;7.60;3.77;;;19.30;99.90;;;;;;5090172;28;20479;-46
2023/05/23 12:00:23;;;;;;;7.23;5.40;;;19.40;99.90;;;;;;5089780;28;20480;-45
2023/05/23 12:02:50;;;;;;;5.73;5.13;;;19.50;99.90;;;;;;5089260;28;20527;-45
2023/05/23 12:05:17;;;;;;;6.80;5.00;;;19.60;99.90;;;;;;5090465;28;20531;-45
2023/05/23 12:07:45;;;;;;;6.40;5.43;;;19.70;99.90;;;;;;5093227;28;20530;-46
2023/05/23 12:10:12;;;;;;;7.83;4.77;;;19.70;99.90;;;;;;5093797;28;20453;-47
2023/05/23 12:12:41;;;;;;;7.50;5.33;;;19.70;99.90;;;;;;5092836;28;21012;-45
2023/05/23 12:15:11;;;;;;;6.70;5.33;;;19.80;99.90;;;;;;5094310;28;20453;-45
2023/05/23 12:17:38;;;;;;;8.23;6.00;;;19.80;99.90;;;;;;5094408;28;20992;-45
2023/05/23 12:20:06;;;;;;;7.00;6.17;;;19.90;99.90;;;;;;5094788;28;20489;-45
2023/05/23 12:22:33;;;;;;;6.63;4.87;;;19.90;99.90;;;;;;5094345;28;20539;-46
2023/05/23 12:25:00;;;;;;;7.17;5.70;;;20.00;99.90;;;;;;5094340;28;20519;-46
2023/05/23 12:27:30;;;;;;;7.37;5.57;;;20.10;99.90;;;;;;5089633;28;20942;-45
2023/05/23 12:30:09;;;;;;;8.80;6.77;;;20.10;99.90;;;;;;5085360;28;20705;-45
2023/05/23 12:32:40;;;;;;;6.43;5.63;;;20.20;99.90;;;;;;5091979;28;20758;-45
2023/05/23 12:35:08;;;;;;;5.60;4.70;;;20.20;99.90;;;;;;5092874;28;20440;-43
2023/05/23 12:37:38;;;;;;;7.10;5.00;;;20.20;99.90;;;;;;5093648;28;20444;-45
2023/05/23 12:40:15;;;;;;;7.70;5.43;;;20.20;99.90;;;;;;5093305;28;20583;-45
2023/05/23 12:42:52;;;;;;;8.00;6.77;;;20.20;99.90;;;;;;5092842;28;20524;-46
2023/05/23 12:45:22;;;;;;;8.43;6.27;;;20.20;99.90;;;;;;5093683;28;20443;-45
2023/05/23 12:47:49;;;;;;;5.33;4.27;;;20.20;99.90;;;;;;5093735;28;20523;-45
2023/05/23 12:50:16;;;;;;;6.47;4.40;;;20.30;99.90;;;;;;5094085;28;20446;-45